Wetterdaten: Woche 25.07.11 - 31.07.11 (KW30)
Datum Zeit Temp. Innen Temp. Aussen UV X Diff Temp. Feuchte Inne Feuchte Auss Sonnenschein Luftdruck Regen ab 0,1 Wind Sonnenschein T Regendauer Windben
25.07.2011 00:00 20,2 C 12,0 C 0,0 UV-I 0,0 C 59 % 92 % 0 % 1008,8 hPa 0,1 l/m 0,2 km/h (0 Bft) 0,00 h 0,00 h 1,1 km/h (0 Bft)
25.07.2011 01:00 20,1 C 12,0 C 0,0 UV-I 0,0 C 60 % 92 % 0 % 1008,4 hPa 0,0 l/m 0,1 km/h (0 Bft) 0,00 h 0,00 h 0,2 km/h (0 Bft)
25.07.2011 02:00 20,0 C 11,9 C 0,0 UV-I 0,0 C 60 % 92 % 0 % 1008,2 hPa 0,0 l/m 0,3 km/h (0 Bft) 0,00 h 0,00 h 1,3 km/h (1 Bft)
25.07.2011 03:00 20,0 C 11,5 C 0,0 UV-I 0,0 C 60 % 92 % 0 % 1008,0 hPa 0,0 l/m 1,7 km/h (1 Bft) 0,00 h 0,00 h 3,2 km/h (1 Bft)
25.07.2011 04:00 19,9 C 11,2 C 0,0 UV-I 0,0 C 60 % 93 % 0 % 1007,9 hPa 0,0 l/m 1,1 km/h (1 Bft) 0,00 h 0,00 h 2,8 km/h (1 Bft)
25.07.2011 05:00 19,8 C 10,3 C 0,0 UV-I 0,0 C 60 % 93 % 0 % 1007,8 hPa 0,0 l/m 0,0 km/h (0 Bft) 0,00 h 0,00 h 0,0 km/h (0 Bft)
25.07.2011 06:00 19,6 C 9,6 C 0,2 UV-I 0,0 C 60 % 93 % 0 % 1007,8 hPa 0,0 l/m 0,0 km/h (0 Bft) 0,00 h 0,00 h 0,0 km/h (0 Bft)
25.07.2011 07:00 19,6 C 10,1 C 0,7 UV-I 0,0 C 59 % 94 % 0 % 1008,0 hPa 0,0 l/m 0,1 km/h (0 Bft) 0,00 h 0,00 h 0,1 km/h (0 Bft)
25.07.2011 08:00 19,7 C 11,4 C 1,5 UV-I 2,2 C 59 % 94 % 51 % 1007,9 hPa 0,0 l/m 0,4 km/h (0 Bft) 0,40 h 0,00 h 0,6 km/h (0 Bft)
25.07.2011 09:00 19,9 C 13,5 C 2,1 UV-I 4,2 C 60 % 93 % 93 % 1008,3 hPa 0,0 l/m 0,3 km/h (0 Bft) 0,90 h 0,00 h 0,5 km/h (0 Bft)
25.07.2011 10:00 20,1 C 15,4 C 5,4 UV-I 6,8 C 60 % 90 % 98 % 1008,3 hPa 0,0 l/m 1,3 km/h (1 Bft) 0,97 h 0,00 h 4,0 km/h (1 Bft)
25.07.2011 11:00 20,4 C 17,5 C 6,0 UV-I 7,8 C 60 % 82 % 100 % 1008,3 hPa 0,0 l/m 3,2 km/h (1 Bft) 1,00 h 0,00 h 4,2 km/h (1 Bft)
25.07.2011 12:00 20,7 C 18,4 C 3,0 UV-I 4,3 C 60 % 75 % 97 % 1008,2 hPa 0,0 l/m 1,1 km/h (1 Bft) 0,90 h 0,00 h 1,6 km/h (1 Bft)
25.07.2011 13:00 21,0 C 19,0 C 3,6 UV-I 4,0 C 59 % 73 % 88 % 1008,2 hPa 0,0 l/m 1,9 km/h (1 Bft) 0,63 h 0,00 h 4,0 km/h (1 Bft)
25.07.2011 14:00 22,0 C 21,0 C 5,3 UV-I 6,6 C 58 % 64 % 100 % 1008,3 hPa 0,0 l/m 4,1 km/h (1 Bft) 1,00 h 0,00 h 6,9 km/h (2 Bft)
25.07.2011 15:00 23,2 C 22,2 C 4,8 UV-I 5,7 C 55 % 57 % 100 % 1008,0 hPa 0,0 l/m 2,0 km/h (1 Bft) 1,00 h 0,00 h 2,8 km/h (1 Bft)
25.07.2011 16:00 23,6 C 21,9 C 2,5 UV-I 2,7 C 53 % 55 % 75 % 1007,7 hPa 0,0 l/m 1,0 km/h (0 Bft) 0,50 h 0,00 h 1,9 km/h (1 Bft)
25.07.2011 17:00 23,4 C 20,4 C 1,0 UV-I 0,4 C 53 % 61 % 11 % 1007,7 hPa 0,0 l/m 2,8 km/h (1 Bft) 0,00 h 0,00 h 5,3 km/h (1 Bft)
25.07.2011 18:00 23,0 C 17,3 C 0,8 UV-I 0,1 C 54 % 77 % 2 % 1007,7 hPa 0,0 l/m 2,5 km/h (1 Bft) 0,00 h 0,00 h 3,8 km/h (1 Bft)
25.07.2011 19:00 22,5 C 17,0 C 0,2 UV-I 0,0 C 56 % 79 % 0 % 1007,4 hPa 0,0 l/m 1,6 km/h (1 Bft) 0,00 h 0,00 h 2,7 km/h (1 Bft)
25.07.2011 20:00 22,2 C 16,9 C 0,1 UV-I 0,0 C 57 % 81 % 0 % 1007,6 hPa 0,0 l/m 2,3 km/h (1 Bft) 0,00 h 0,00 h 3,7 km/h (1 Bft)
25.07.2011 21:00 22,0 C 16,5 C 0,0 UV-I 0,0 C 58 % 83 % 0 % 1008,0 hPa 0,1 l/m 0,3 km/h (0 Bft) 0,00 h 0,00 h 0,7 km/h (0 Bft)
25.07.2011 22:00 21,9 C 15,9 C 0,0 UV-I 0,0 C 59 % 87 % 0 % 1008,8 hPa 0,1 l/m 0,2 km/h (0 Bft) 0,00 h 0,00 h 0,9 km/h (0 Bft)
25.07.2011 23:00 21,7 C 15,5 C 0,0 UV-I 0,0 C 60 % 88 % 0 % 1008,5 hPa 0,0 l/m 0,3 km/h (0 Bft) 0,00 h 0,00 h 0,6 km/h (0 Bft)
26.07.2011 00:00 21,6 C 15,1 C 0,0 UV-I 0,0 C 60 % 89 % 0 % 1008,6 hPa 0,1 l/m 0,0 km/h (0 Bft) 0,00 h 0,00 h 0,0 km/h (0 Bft)
26.07.2011 01:00 21,5 C 14,9 C 0,0 UV-I 0,0 C 60 % 89 % 0 % 1008,9 hPa 0,2 l/m 0,2 km/h (0 Bft) 0,00 h 0,00 h 0,7 km/h (0 Bft)
26.07.2011 02:00 21,5 C 14,8 C 0,0 UV-I 0,0 C 60 % 90 % 0 % 1008,6 hPa 0,1 l/m 0,0 km/h (0 Bft) 0,00 h 0,00 h 0,0 km/h (0 Bft)
26.07.2011 03:00 21,4 C 14,5 C 0,0 UV-I 0,0 C 61 % 90 % 0 % 1008,4 hPa 0,1 l/m 0,0 km/h (0 Bft) 0,00 h 0,00 h 0,0 km/h (0 Bft)
26.07.2011 04:00 21,2 C 14,3 C 0,0 UV-I 0,0 C 61 % 91 % 0 % 1008,4 hPa 0,0 l/m 0,0 km/h (0 Bft) 0,00 h 0,00 h 0,0 km/h (0 Bft)
26.07.2011 05:00 21,2 C 14,3 C 0,0 UV-I 0,0 C 62 % 92 % 0 % 1008,6 hPa 0,0 l/m 0,0 km/h (0 Bft) 0,00 h 0,00 h 0,0 km/h (0 Bft)
26.07.2011 06:00 21,2 C 14,4 C 0,0 UV-I 0,0 C 62 % 92 % 0 % 1009,1 hPa 0,0 l/m 0,0 km/h (0 Bft) 0,00 h 0,00 h 0,0 km/h (0 Bft)
26.07.2011 07:00 21,2 C 14,2 C 0,2 UV-I 0,0 C 62 % 92 % 0 % 1009,7 hPa 0,0 l/m 0,3 km/h (0 Bft) 0,00 h 0,00 h 1,6 km/h (1 Bft)
26.07.2011 08:00 21,3 C 14,4 C 0,9 UV-I 0,3 C 62 % 92 % 8 % 1010,2 hPa 0,0 l/m 0,9 km/h (0 Bft) 0,00 h 0,00 h 1,8 km/h (1 Bft)
26.07.2011 09:00 21,5 C 15,1 C 1,9 UV-I 1,9 C 61 % 90 % 53 % 1010,7 hPa 0,0 l/m 1,5 km/h (1 Bft) 0,07 h 0,00 h 2,8 km/h (1 Bft)
26.07.2011 10:00 21,8 C 16,2 C 2,0 UV-I 2,9 C 60 % 86 % 75 % 1011,2 hPa 0,0 l/m 1,5 km/h (1 Bft) 0,43 h 0,00 h 3,9 km/h (1 Bft)
26.07.2011 11:00 21,9 C 16,4 C 1,8 UV-I 2,2 C 60 % 83 % 63 % 1011,6 hPa 0,0 l/m 2,1 km/h (1 Bft) 0,13 h 0,00 h 4,6 km/h (1 Bft)
26.07.2011 12:00 22,1 C 16,4 C 2,0 UV-I 1,9 C 59 % 82 % 56 % 1012,0 hPa 0,0 l/m 1,6 km/h (1 Bft) 0,13 h 0,00 h 4,1 km/h (1 Bft)
26.07.2011 13:00 22,4 C 17,6 C 3,7 UV-I 4,6 C 58 % 78 % 100 % 1012,3 hPa 0,0 l/m 2,7 km/h (1 Bft) 1,00 h 0,00 h 4,6 km/h (1 Bft)
26.07.2011 14:00 22,6 C 17,7 C 2,1 UV-I 2,4 C 57 % 77 % 67 % 1013,0 hPa 0,0 l/m 2,5 km/h (1 Bft) 0,27 h 0,00 h 5,9 km/h (2 Bft)
26.07.2011 15:00 22,6 C 17,8 C 2,0 UV-I 2,2 C 57 % 79 % 63 % 1013,1 hPa 0,0 l/m 2,8 km/h (1 Bft) 0,00 h 0,00 h 5,3 km/h (1 Bft)
26.07.2011 16:00 22,7 C 17,8 C 1,8 UV-I 1,4 C 58 % 80 % 40 % 1013,5 hPa 0,0 l/m 2,3 km/h (1 Bft) 0,00 h 0,00 h 4,0 km/h (1 Bft)
26.07.2011 17:00 22,7 C 18,0 C 1,7 UV-I 1,9 C 58 % 80 % 55 % 1013,8 hPa 0,0 l/m 2,1 km/h (1 Bft) 0,00 h 0,00 h 4,5 km/h (1 Bft)
26.07.2011 18:00 22,6 C 17,8 C 0,7 UV-I 0,5 C 58 % 79 % 14 % 1014,0 hPa 0,0 l/m 0,8 km/h (0 Bft) 0,00 h 0,00 h 0,8 km/h (0 Bft)
26.07.2011 19:00 22,4 C 17,3 C 0,3 UV-I 0,1 C 59 % 81 % 3 % 1014,2 hPa 0,0 l/m 0,8 km/h (0 Bft) 0,00 h 0,00 h 1,5 km/h (1 Bft)
26.07.2011 20:00 22,2 C 17,1 C 0,1 UV-I 0,0 C 60 % 82 % 0 % 1014,5 hPa 0,0 l/m 0,1 km/h (0 Bft) 0,00 h 0,00 h 0,2 km/h (0 Bft)
26.07.2011 21:00 22,1 C 16,6 C 0,0 UV-I 0,0 C 60 % 84 % 0 % 1014,8 hPa 0,0 l/m 0,2 km/h (0 Bft) 0,00 h 0,00 h 0,0 km/h (0 Bft)
26.07.2011 22:00 22,0 C 15,9 C 0,0 UV-I 0,0 C 61 % 86 % 0 % 1015,3 hPa 0,0 l/m 0,0 km/h (0 Bft) 0,00 h 0,00 h 0,0 km/h (0 Bft)
26.07.2011 23:00 21,8 C 15,5 C 0,0 UV-I 0,0 C 61 % 88 % 0 % 1015,6 hPa 0,0 l/m 0,0 km/h (0 Bft) 0,00 h 0,00 h 0,0 km/h (0 Bft)
27.07.2011 00:00 21,7 C 15,4 C 0,0 UV-I 0,0 C 61 % 89 % 0 % 1015,7 hPa 0,0 l/m 0,0 km/h (0 Bft) 0,00 h 0,00 h 0,0 km/h (0 Bft)
27.07.2011 01:00 21,6 C 15,2 C 0,0 UV-I 0,0 C 62 % 90 % 0 % 1016,1 hPa 0,0 l/m 0,6 km/h (0 Bft) 0,00 h 0,00 h 1,5 km/h (1 Bft)
27.07.2011 02:00 21,6 C 15,1 C 0,0 UV-I 0,0 C 62 % 90 % 0 % 1016,1 hPa 0,0 l/m 0,1 km/h (0 Bft) 0,00 h 0,00 h 0,5 km/h (0 Bft)
27.07.2011 03:00 21,6 C 15,0 C 0,0 UV-I 0,0 C 62 % 91 % 0 % 1016,1 hPa 0,7 l/m 0,0 km/h (0 Bft) 0,00 h 0,00 h 0,0 km/h (0 Bft)
27.07.2011 04:00 21,5 C 14,8 C 0,0 UV-I 0,0 C 63 % 92 % 0 % 1016,3 hPa 1,1 l/m 0,0 km/h (0 Bft) 0,00 h 0,00 h 0,0 km/h (0 Bft)
27.07.2011 05:00 21,4 C 14,8 C 0,0 UV-I 0,0 C 63 % 92 % 0 % 1016,3 hPa 1,7 l/m 0,0 km/h (0 Bft) 0,00 h 0,00 h 0,0 km/h (0 Bft)
27.07.2011 06:00 21,4 C 14,8 C 0,0 UV-I 0,0 C 63 % 92 % 0 % 1016,8 hPa 1,2 l/m 0,0 km/h (0 Bft) 0,00 h 0,00 h 0,0 km/h (0 Bft)
27.07.2011 07:00 21,4 C 14,9 C 0,4 UV-I 0,0 C 63 % 93 % 0 % 1016,8 hPa 1,1 l/m 0,5 km/h (0 Bft) 0,00 h 0,00 h 1,4 km/h (1 Bft)
27.07.2011 08:00 21,6 C 15,2 C 1,2 UV-I 0,7 C 64 % 93 % 20 % 1017,2 hPa 0,9 l/m 0,9 km/h (0 Bft) 0,00 h 0,00 h 1,7 km/h (1 Bft)
27.07.2011 09:00 21,8 C 15,9 C 1,5 UV-I 1,7 C 63 % 93 % 49 % 1017,5 hPa 1,7 l/m 0,5 km/h (0 Bft) 0,00 h 0,00 h 1,1 km/h (1 Bft)
27.07.2011 10:00 22,0 C 16,5 C 1,9 UV-I 1,8 C 63 % 92 % 52 % 1017,5 hPa 0,0 l/m 0,5 km/h (0 Bft) 0,10 h 0,00 h 1,2 km/h (1 Bft)
27.07.2011 11:00 22,2 C 17,5 C 2,6 UV-I 3,1 C 63 % 91 % 74 % 1017,8 hPa 0,1 l/m 1,1 km/h (1 Bft) 0,40 h 0,00 h 3,1 km/h (1 Bft)
27.07.2011 12:00 22,6 C 18,7 C 3,2 UV-I 4,6 C 62 % 88 % 100 % 1018,2 hPa 0,0 l/m 1,0 km/h (0 Bft) 1,00 h 0,00 h 3,0 km/h (1 Bft)
27.07.2011 13:00 22,9 C 19,5 C 3,0 UV-I 3,9 C 61 % 83 % 98 % 1018,1 hPa 0,0 l/m 2,5 km/h (1 Bft) 1,00 h 0,00 h 6,7 km/h (2 Bft)
27.07.2011 14:00 23,4 C 20,7 C 5,2 UV-I 6,1 C 61 % 77 % 100 % 1018,3 hPa 0,0 l/m 6,0 km/h (2 Bft) 1,00 h 0,00 h 8,7 km/h (2 Bft)
27.07.2011 15:00 24,4 C 22,4 C 6,4 UV-I 7,5 C 59 % 70 % 100 % 1018,5 hPa 0,0 l/m 6,6 km/h (2 Bft) 1,00 h 0,00 h 9,5 km/h (2 Bft)
27.07.2011 16:00 25,3 C 23,2 C 6,7 UV-I 6,5 C 56 % 66 % 100 % 1018,4 hPa 0,0 l/m 7,5 km/h (2 Bft) 1,00 h 0,00 h 11,7 km/h (2 Bft)
27.07.2011 17:00 25,8 C 23,3 C 4,8 UV-I 5,8 C 55 % 64 % 100 % 1018,1 hPa 0,0 l/m 7,3 km/h (2 Bft) 1,00 h 0,00 h 9,0 km/h (2 Bft)
27.07.2011 18:00 25,5 C 18,7 C 0,2 UV-I 0,2 C 55 % 79 % 7 % 1018,5 hPa 26,1 l/m 3,0 km/h (1 Bft) 0,03 h 0,00 h 6,0 km/h (2 Bft)
27.07.2011 19:00 24,8 C 16,3 C 0,2 UV-I 0,0 C 57 % 89 % 0 % 1018,1 hPa 1,7 l/m 0,0 km/h (0 Bft) 0,00 h 0,00 h 0,2 km/h (0 Bft)
27.07.2011 20:00 24,1 C 15,9 C 0,2 UV-I 0,0 C 58 % 91 % 0 % 1017,7 hPa 0,0 l/m 0,4 km/h (0 Bft) 0,00 h 0,00 h 1,1 km/h (1 Bft)
27.07.2011 21:00 23,5 C 15,7 C 0,1 UV-I 0,0 C 60 % 92 % 0 % 1018,1 hPa 0,0 l/m 0,0 km/h (0 Bft) 0,00 h 0,00 h 0,0 km/h (0 Bft)
27.07.2011 22:00 23,2 C 15,6 C 0,0 UV-I 0,0 C 61 % 93 % 0 % 1018,1 hPa 0,0 l/m 0,0 km/h (0 Bft) 0,00 h 0,00 h 0,0 km/h (0 Bft)
27.07.2011 23:00 23,0 C 15,6 C 0,0 UV-I 0,0 C 62 % 93 % 0 % 1018,2 hPa 0,0 l/m 0,0 km/h (0 Bft) 0,00 h 0,00 h 0,0 km/h (0 Bft)
28.07.2011 00:00 22,8 C 15,4 C 0,0 UV-I 0,0 C 62 % 93 % 0 % 1018,7 hPa 0,0 l/m 0,0 km/h (0 Bft) 0,00 h 0,00 h 0,0 km/h (0 Bft)
28.07.2011 01:00 22,6 C 15,3 C 0,0 UV-I 0,0 C 63 % 93 % 0 % 1018,7 hPa 0,2 l/m 0,5 km/h (0 Bft) 0,00 h 0,00 h 0,9 km/h (0 Bft)
28.07.2011 02:00 22,5 C 15,4 C 0,0 UV-I 0,0 C 63 % 94 % 0 % 1018,6 hPa 3,2 l/m 0,2 km/h (0 Bft) 0,00 h 0,00 h 0,4 km/h (0 Bft)
28.07.2011 03:00 22,4 C 15,2 C 0,0 UV-I 0,0 C 63 % 94 % 0 % 1018,5 hPa 0,0 l/m 0,0 km/h (0 Bft) 0,00 h 0,00 h 0,0 km/h (0 Bft)
28.07.2011 04:00 22,3 C 15,0 C 0,0 UV-I 0,0 C 63 % 94 % 0 % 1018,2 hPa 0,0 l/m 0,0 km/h (0 Bft) 0,00 h 0,00 h 0,0 km/h (0 Bft)
28.07.2011 05:00 22,3 C 14,9 C 0,0 UV-I 0,0 C 64 % 94 % 0 % 1017,8 hPa 0,0 l/m 0,0 km/h (0 Bft) 0,00 h 0,00 h 0,0 km/h (0 Bft)
28.07.2011 06:00 22,2 C 14,8 C 0,1 UV-I 0,0 C 64 % 94 % 0 % 1018,1 hPa 0,0 l/m 0,0 km/h (0 Bft) 0,00 h 0,00 h 0,0 km/h (0 Bft)
28.07.2011 07:00 22,2 C 15,0 C 0,2 UV-I 0,0 C 64 % 94 % 0 % 1018,3 hPa 0,0 l/m 0,0 km/h (0 Bft) 0,00 h 0,00 h 0,0 km/h (0 Bft)
28.07.2011 08:00 22,3 C 15,8 C 1,0 UV-I 0,8 C 64 % 94 % 23 % 1018,4 hPa 0,0 l/m 0,3 km/h (0 Bft) 0,00 h 0,00 h 1,2 km/h (1 Bft)
28.07.2011 09:00 22,5 C 16,6 C 1,8 UV-I 2,1 C 63 % 94 % 60 % 1018,3 hPa 0,0 l/m 1,4 km/h (1 Bft) 0,27 h 0,00 h 2,8 km/h (1 Bft)
28.07.2011 10:00 22,7 C 17,7 C 2,7 UV-I 3,7 C 63 % 94 % 98 % 1019,0 hPa 0,0 l/m 0,7 km/h (0 Bft) 1,00 h 0,00 h 1,2 km/h (1 Bft)
28.07.2011 11:00 23,0 C 18,9 C 2,8 UV-I 4,3 C 63 % 91 % 100 % 1019,1 hPa 0,0 l/m 1,1 km/h (0 Bft) 1,00 h 0,00 h 2,9 km/h (1 Bft)
28.07.2011 12:00 23,3 C 20,2 C 3,8 UV-I 5,5 C 62 % 87 % 100 % 1019,2 hPa 0,0 l/m 2,2 km/h (1 Bft) 1,00 h 0,00 h 4,2 km/h (1 Bft)
28.07.2011 13:00 23,7 C 22,0 C 4,8 UV-I 7,2 C 61 % 77 % 100 % 1019,2 hPa 0,0 l/m 3,4 km/h (1 Bft) 1,00 h 0,00 h 6,1 km/h (2 Bft)
28.07.2011 14:00 24,4 C 23,3 C 5,5 UV-I 7,1 C 61 % 69 % 100 % 1018,7 hPa 0,0 l/m 5,6 km/h (1 Bft) 1,00 h 0,00 h 8,5 km/h (2 Bft)
28.07.2011 15:00 25,1 C 24,0 C 5,8 UV-I 6,2 C 59 % 66 % 100 % 1019,1 hPa 0,0 l/m 5,3 km/h (1 Bft) 1,00 h 0,00 h 9,2 km/h (2 Bft)
28.07.2011 16:00 25,9 C 24,9 C 6,4 UV-I 6,5 C 57 % 60 % 100 % 1019,2 hPa 0,0 l/m 6,8 km/h (2 Bft) 1,00 h 0,00 h 9,2 km/h (2 Bft)
28.07.2011 17:00 26,3 C 24,4 C 3,2 UV-I 3,7 C 56 % 60 % 72 % 1019,1 hPa 0,0 l/m 7,3 km/h (2 Bft) 0,53 h 0,00 h 9,7 km/h (2 Bft)
28.07.2011 18:00 25,8 C 21,9 C 0,8 UV-I 0,4 C 57 % 63 % 11 % 1019,4 hPa 0,0 l/m 8,8 km/h (2 Bft) 0,00 h 0,00 h 12,8 km/h (3 Bft)
28.07.2011 19:00 25,3 C 18,9 C 0,7 UV-I 0,0 C 58 % 77 % 0 % 1019,1 hPa 0,0 l/m 2,7 km/h (1 Bft) 0,00 h 0,00 h 4,9 km/h (1 Bft)
28.07.2011 20:00 24,9 C 18,8 C 0,4 UV-I 0,1 C 58 % 78 % 2 % 1018,7 hPa 0,1 l/m 0,2 km/h (0 Bft) 0,00 h 0,00 h 0,7 km/h (0 Bft)
28.07.2011 21:00 24,4 C 18,0 C 0,0 UV-I 0,0 C 59 % 80 % 0 % 1019,0 hPa 0,0 l/m 0,0 km/h (0 Bft) 0,00 h 0,00 h 0,0 km/h (0 Bft)
28.07.2011 22:00 24,0 C 16,8 C 0,0 UV-I 0,0 C 60 % 84 % 0 % 1019,6 hPa 0,0 l/m 1,2 km/h (1 Bft) 0,00 h 0,00 h 1,7 km/h (1 Bft)
28.07.2011 23:00 23,6 C 16,4 C 0,0 UV-I 0,0 C 61 % 88 % 0 % 1019,9 hPa 0,0 l/m 0,4 km/h (0 Bft) 0,00 h 0,00 h 0,2 km/h (0 Bft)
29.07.2011 00:00 23,4 C 16,0 C 0,0 UV-I 0,0 C 62 % 88 % 0 % 1019,9 hPa 0,0 l/m 0,0 km/h (0 Bft) 0,00 h 0,00 h 0,0 km/h (0 Bft)
29.07.2011 01:00 23,2 C 15,5 C 0,0 UV-I 0,0 C 62 % 89 % 0 % 1019,9 hPa 0,0 l/m 0,0 km/h (0 Bft) 0,00 h 0,00 h 0,0 km/h (0 Bft)
29.07.2011 02:00 23,1 C 15,4 C 0,0 UV-I 0,0 C 63 % 90 % 0 % 1019,8 hPa 0,0 l/m 0,0 km/h (0 Bft) 0,00 h 0,00 h 0,0 km/h (0 Bft)
29.07.2011 03:00 23,0 C 15,7 C 0,0 UV-I 0,0 C 63 % 92 % 0 % 1019,8 hPa 0,0 l/m 0,5 km/h (0 Bft) 0,00 h 0,00 h 1,5 km/h (1 Bft)
29.07.2011 04:00 22,9 C 16,1 C 0,0 UV-I 0,0 C 63 % 92 % 0 % 1019,7 hPa 0,0 l/m 2,9 km/h (1 Bft) 0,00 h 0,00 h 5,0 km/h (1 Bft)
29.07.2011 05:00 22,8 C 16,0 C 0,0 UV-I 0,0 C 64 % 91 % 0 % 1019,6 hPa 0,0 l/m 6,8 km/h (2 Bft) 0,00 h 0,00 h 9,5 km/h (2 Bft)
29.07.2011 06:00 22,8 C 15,7 C 0,0 UV-I 0,0 C 64 % 91 % 0 % 1019,7 hPa 0,0 l/m 5,1 km/h (1 Bft) 0,00 h 0,00 h 6,7 km/h (2 Bft)
29.07.2011 07:00 22,7 C 15,6 C 0,1 UV-I 0,0 C 64 % 90 % 0 % 1020,1 hPa 0,0 l/m 8,5 km/h (2 Bft) 0,00 h 0,00 h 10,6 km/h (2 Bft)
29.07.2011 08:00 22,7 C 15,6 C 0,6 UV-I 0,4 C 64 % 89 % 11 % 1020,6 hPa 0,0 l/m 8,2 km/h (2 Bft) 0,00 h 0,00 h 10,6 km/h (2 Bft)
29.07.2011 09:00 22,8 C 16,4 C 1,7 UV-I 1,6 C 63 % 85 % 46 % 1020,9 hPa 0,0 l/m 8,3 km/h (2 Bft) 0,00 h 0,00 h 11,9 km/h (2 Bft)
29.07.2011 10:00 23,1 C 17,5 C 2,6 UV-I 3,0 C 62 % 78 % 82 % 1020,8 hPa 0,0 l/m 8,7 km/h (2 Bft) 0,53 h 0,00 h 11,8 km/h (2 Bft)
29.07.2011 11:00 23,2 C 17,9 C 2,1 UV-I 2,4 C 61 % 75 % 65 % 1020,7 hPa 0,0 l/m 8,5 km/h (2 Bft) 0,33 h 0,00 h 11,1 km/h (2 Bft)
29.07.2011 12:00 23,5 C 18,2 C 2,7 UV-I 2,7 C 60 % 75 % 78 % 1021,0 hPa 0,0 l/m 8,9 km/h (2 Bft) 0,40 h 0,00 h 11,9 km/h (2 Bft)
29.07.2011 13:00 23,6 C 18,4 C 3,3 UV-I 3,1 C 60 % 72 % 86 % 1021,0 hPa 0,0 l/m 9,1 km/h (2 Bft) 0,67 h 0,00 h 10,7 km/h (2 Bft)
29.07.2011 14:00 24,0 C 19,6 C 4,6 UV-I 5,2 C 58 % 67 % 100 % 1020,9 hPa 0,0 l/m 6,2 km/h (2 Bft) 1,00 h 0,00 h 10,4 km/h (2 Bft)
29.07.2011 15:00 24,7 C 20,6 C 5,4 UV-I 5,3 C 57 % 62 % 100 % 1020,7 hPa 0,0 l/m 7,5 km/h (2 Bft) 1,00 h 0,00 h 11,0 km/h (2 Bft)
29.07.2011 16:00 25,2 C 20,2 C 3,7 UV-I 3,5 C 55 % 62 % 86 % 1020,2 hPa 0,0 l/m 9,4 km/h (2 Bft) 0,60 h 0,00 h 12,0 km/h (2 Bft)
29.07.2011 17:00 25,2 C 20,0 C 2,3 UV-I 2,4 C 54 % 64 % 68 % 1019,8 hPa 0,0 l/m 9,2 km/h (2 Bft) 0,23 h 0,00 h 12,9 km/h (3 Bft)
29.07.2011 18:00 25,0 C 19,4 C 1,6 UV-I 0,9 C 55 % 65 % 25 % 1019,5 hPa 0,0 l/m 5,6 km/h (1 Bft) 0,00 h 0,00 h 7,3 km/h (2 Bft)
29.07.2011 19:00 24,7 C 18,6 C 0,5 UV-I 0,0 C 55 % 68 % 0 % 1019,3 hPa 0,0 l/m 4,1 km/h (1 Bft) 0,00 h 0,00 h 6,9 km/h (2 Bft)
29.07.2011 20:00 24,2 C 17,8 C 0,0 UV-I 0,0 C 56 % 73 % 0 % 1019,1 hPa 0,0 l/m 3,1 km/h (1 Bft) 0,00 h 0,00 h 5,6 km/h (1 Bft)
29.07.2011 21:00 23,7 C 17,1 C 0,0 UV-I 0,0 C 57 % 77 % 0 % 1019,2 hPa 0,0 l/m 3,5 km/h (1 Bft) 0,00 h 0,00 h 7,0 km/h (2 Bft)
29.07.2011 22:00 23,4 C 16,5 C 0,0 UV-I 0,0 C 58 % 77 % 0 % 1019,7 hPa 0,0 l/m 5,7 km/h (1 Bft) 0,00 h 0,00 h 8,1 km/h (2 Bft)
29.07.2011 23:00 23,2 C 15,9 C 0,0 UV-I 0,0 C 58 % 79 % 0 % 1019,7 hPa 0,0 l/m 2,2 km/h (1 Bft) 0,00 h 0,00 h 4,3 km/h (1 Bft)
30.07.2011 00:00 23,0 C 15,1 C 0,0 UV-I 0,0 C 59 % 82 % 0 % 1019,2 hPa 0,0 l/m 0,2 km/h (0 Bft) 0,00 h 0,00 h 0,8 km/h (0 Bft)
30.07.2011 01:00 22,8 C 14,1 C 0,0 UV-I 0,0 C 59 % 86 % 0 % 1019,0 hPa 0,0 l/m 0,2 km/h (0 Bft) 0,00 h 0,00 h 0,4 km/h (0 Bft)
30.07.2011 02:00 22,7 C 14,3 C 0,0 UV-I 0,0 C 60 % 88 % 0 % 1018,7 hPa 0,0 l/m 0,6 km/h (0 Bft) 0,00 h 0,00 h 1,7 km/h (1 Bft)
30.07.2011 03:00 22,6 C 14,3 C 0,0 UV-I 0,0 C 60 % 87 % 0 % 1018,3 hPa 0,0 l/m 1,5 km/h (1 Bft) 0,00 h 0,00 h 4,0 km/h (1 Bft)
30.07.2011 04:00 22,5 C 14,3 C 0,0 UV-I 0,0 C 60 % 87 % 0 % 1018,2 hPa 0,0 l/m 0,0 km/h (0 Bft) 0,00 h 0,00 h 0,7 km/h (0 Bft)
30.07.2011 05:00 22,4 C 14,3 C 0,0 UV-I 0,0 C 60 % 88 % 0 % 1018,2 hPa 0,0 l/m 0,6 km/h (0 Bft) 0,00 h 0,00 h 2,3 km/h (1 Bft)
30.07.2011 06:00 22,4 C 14,1 C 0,0 UV-I 0,0 C 60 % 87 % 0 % 1018,2 hPa 0,0 l/m 1,0 km/h (0 Bft) 0,00 h 0,00 h 2,4 km/h (1 Bft)
30.07.2011 07:00 22,3 C 14,1 C 0,1 UV-I 0,0 C 60 % 87 % 1 % 1018,4 hPa 0,0 l/m 0,7 km/h (0 Bft) 0,00 h 0,00 h 1,7 km/h (1 Bft)
30.07.2011 08:00 22,3 C 14,6 C 0,7 UV-I 0,8 C 60 % 85 % 22 % 1018,3 hPa 0,0 l/m 3,9 km/h (1 Bft) 0,00 h 0,00 h 7,9 km/h (2 Bft)
30.07.2011 09:00 22,4 C 14,7 C 0,9 UV-I 0,7 C 59 % 84 % 21 % 1018,5 hPa 0,0 l/m 5,7 km/h (1 Bft) 0,00 h 0,00 h 9,1 km/h (2 Bft)
30.07.2011 10:00 22,5 C 14,4 C 1,4 UV-I 1,1 C 59 % 87 % 30 % 1018,6 hPa 0,0 l/m 2,8 km/h (1 Bft) 0,00 h 0,00 h 5,0 km/h (1 Bft)
30.07.2011 11:00 22,6 C 15,0 C 1,1 UV-I 1,3 C 59 % 84 % 38 % 1018,5 hPa 0,0 l/m 4,3 km/h (1 Bft) 0,03 h 0,00 h 7,5 km/h (2 Bft)
30.07.2011 12:00 22,7 C 15,6 C 2,2 UV-I 2,1 C 59 % 81 % 58 % 1018,6 hPa 0,0 l/m 5,3 km/h (1 Bft) 0,37 h 0,00 h 7,6 km/h (2 Bft)
30.07.2011 13:00 22,8 C 15,9 C 1,3 UV-I 1,1 C 58 % 77 % 31 % 1018,7 hPa 0,0 l/m 7,1 km/h (2 Bft) 0,00 h 0,00 h 9,6 km/h (2 Bft)
30.07.2011 14:00 22,8 C 16,3 C 1,6 UV-I 1,6 C 57 % 76 % 46 % 1018,8 hPa 0,0 l/m 5,9 km/h (2 Bft) 0,00 h 0,00 h 9,4 km/h (2 Bft)
30.07.2011 15:00 22,8 C 16,2 C 1,1 UV-I 0,8 C 57 % 76 % 22 % 1018,6 hPa 0,0 l/m 4,5 km/h (1 Bft) 0,00 h 0,00 h 8,4 km/h (2 Bft)
30.07.2011 16:00 22,9 C 16,7 C 1,3 UV-I 1,4 C 57 % 73 % 40 % 1018,6 hPa 0,0 l/m 3,9 km/h (1 Bft) 0,00 h 0,00 h 7,4 km/h (2 Bft)
30.07.2011 17:00 22,8 C 16,5 C 0,8 UV-I 0,7 C 57 % 74 % 20 % 1018,5 hPa 0,0 l/m 2,9 km/h (1 Bft) 0,00 h 0,00 h 5,0 km/h (1 Bft)
30.07.2011 18:00 22,6 C 16,3 C 0,5 UV-I 0,3 C 57 % 74 % 10 % 1018,3 hPa 0,0 l/m 2,3 km/h (1 Bft) 0,00 h 0,00 h 3,9 km/h (1 Bft)
30.07.2011 19:00 22,6 C 16,3 C 0,4 UV-I 0,3 C 57 % 74 % 8 % 1018,1 hPa 0,0 l/m 3,1 km/h (1 Bft) 0,00 h 0,00 h 4,2 km/h (1 Bft)
30.07.2011 20:00 22,4 C 15,9 C 0,0 UV-I 0,0 C 57 % 76 % 0 % 1018,0 hPa 0,0 l/m 0,7 km/h (0 Bft) 0,00 h 0,00 h 1,6 km/h (1 Bft)
30.07.2011 21:00 22,3 C 15,4 C 0,0 UV-I 0,0 C 58 % 79 % 0 % 1018,2 hPa 0,0 l/m 1,1 km/h (0 Bft) 0,00 h 0,00 h 2,7 km/h (1 Bft)
30.07.2011 22:00 22,2 C 15,0 C 0,0 UV-I 0,0 C 58 % 81 % 0 % 1018,2 hPa 0,0 l/m 0,2 km/h (0 Bft) 0,00 h 0,00 h 0,9 km/h (0 Bft)
30.07.2011 23:00 22,0 C 14,7 C 0,0 UV-I 0,0 C 59 % 82 % 0 % 1018,2 hPa 0,0 l/m 0,2 km/h (0 Bft) 0,00 h 0,00 h 0,6 km/h (0 Bft)
31.07.2011 00:00 22,0 C 14,5 C 0,0 UV-I 0,0 C 59 % 82 % 0 % 1018,4 hPa 0,0 l/m 0,1 km/h (0 Bft) 0,00 h 0,00 h 0,3 km/h (0 Bft)
31.07.2011 01:00 21,8 C 14,2 C 0,0 UV-I 0,0 C 59 % 83 % 0 % 1018,0 hPa 0,0 l/m 0,1 km/h (0 Bft) 0,00 h 0,00 h 0,6 km/h (0 Bft)
31.07.2011 02:00 21,7 C 14,0 C 0,0 UV-I 0,0 C 59 % 83 % 0 % 1017,5 hPa 0,0 l/m 0,0 km/h (0 Bft) 0,00 h 0,00 h 0,0 km/h (0 Bft)
31.07.2011 03:00 21,7 C 13,8 C 0,0 UV-I 0,0 C 59 % 84 % 0 % 1017,1 hPa 0,0 l/m 0,0 km/h (0 Bft) 0,00 h 0,00 h 0,0 km/h (0 Bft)
31.07.2011 04:00 21,6 C 13,6 C 0,0 UV-I 0,0 C 59 % 84 % 0 % 1016,9 hPa 0,0 l/m 0,0 km/h (0 Bft) 0,00 h 0,00 h 0,0 km/h (0 Bft)
31.07.2011 05:00 21,5 C 13,4 C 0,0 UV-I 0,0 C 59 % 84 % 0 % 1016,9 hPa 0,0 l/m 0,0 km/h (0 Bft) 0,00 h 0,00 h 0,0 km/h (0 Bft)
31.07.2011 06:00 21,5 C 13,4 C 0,0 UV-I 0,0 C 59 % 85 % 0 % 1016,9 hPa 0,0 l/m 0,0 km/h (0 Bft) 0,00 h 0,00 h 0,6 km/h (0 Bft)
31.07.2011 07:00 21,6 C 13,7 C 0,3 UV-I 0,4 C 59 % 84 % 11 % 1016,9 hPa 0,0 l/m 0,6 km/h (0 Bft) 0,00 h 0,00 h 1,9 km/h (1 Bft)
31.07.2011 08:00 21,7 C 14,4 C 0,6 UV-I 0,9 C 59 % 81 % 25 % 1017,0 hPa 0,0 l/m 1,2 km/h (1 Bft) 0,00 h 0,00 h 2,5 km/h (1 Bft)
31.07.2011 09:00 21,7 C 15,0 C 1,0 UV-I 1,3 C 58 % 76 % 38 % 1017,2 hPa 0,0 l/m 2,0 km/h (1 Bft) 0,00 h 0,00 h 4,4 km/h (1 Bft)
31.07.2011 10:00 21,9 C 15,5 C 1,6 UV-I 1,9 C 58 % 69 % 54 % 1017,3 hPa 0,0 l/m 3,5 km/h (1 Bft) 0,00 h 0,00 h 6,5 km/h (2 Bft)
31.07.2011 11:00 22,1 C 15,9 C 1,9 UV-I 2,3 C 57 % 67 % 64 % 1017,5 hPa 0,0 l/m 3,1 km/h (1 Bft) 0,00 h 0,00 h 6,7 km/h (2 Bft)
31.07.2011 12:00 22,3 C 16,5 C 2,5 UV-I 2,9 C 56 % 64 % 83 % 1017,4 hPa 0,0 l/m 4,3 km/h (1 Bft) 0,50 h 0,00 h 5,7 km/h (1 Bft)
31.07.2011 13:00 22,6 C 17,1 C 3,0 UV-I 3,8 C 55 % 62 % 91 % 1017,7 hPa 0,0 l/m 3,5 km/h (1 Bft) 0,70 h 0,00 h 6,9 km/h (2 Bft)
31.07.2011 14:00 23,0 C 17,7 C 3,0 UV-I 4,2 C 54 % 59 % 100 % 1017,6 hPa 0,0 l/m 4,3 km/h (1 Bft) 1,00 h 0,00 h 6,5 km/h (2 Bft)
31.07.2011 15:00 23,2 C 18,0 C 2,9 UV-I 3,6 C 54 % 59 % 99 % 1017,6 hPa 0,0 l/m 3,2 km/h (1 Bft) 1,00 h 0,00 h 5,1 km/h (1 Bft)
31.07.2011 16:00 23,4 C 18,2 C 2,8 UV-I 3,5 C 53 % 58 % 94 % 1017,4 hPa 0,0 l/m 4,1 km/h (1 Bft) 0,87 h 0,00 h 7,0 km/h (2 Bft)
31.07.2011 17:00 23,6 C 18,1 C 2,2 UV-I 2,7 C 53 % 58 % 72 % 1017,2 hPa 0,0 l/m 4,5 km/h (1 Bft) 0,27 h 0,00 h 6,3 km/h (2 Bft)
31.07.2011 18:00 23,7 C 17,7 C 1,2 UV-I 1,0 C 52 % 60 % 28 % 1017,1 hPa 0,0 l/m 1,7 km/h (1 Bft) 0,00 h 0,00 h 2,6 km/h (1 Bft)
31.07.2011 19:00 23,5 C 17,6 C 0,8 UV-I 0,6 C 52 % 60 % 16 % 1016,5 hPa 0,0 l/m 1,6 km/h (1 Bft) 0,00 h 0,00 h 3,3 km/h (1 Bft)
31.07.2011 20:00 23,2 C 16,6 C 0,2 UV-I 0,0 C 53 % 64 % 0 % 1016,7 hPa 0,0 l/m 0,1 km/h (0 Bft) 0,00 h 0,00 h 0,0 km/h (0 Bft)
31.07.2011 21:00 22,7 C 15,0 C 0,0 UV-I 0,0 C 54 % 70 % 0 % 1016,7 hPa 0,0 l/m 0,0 km/h (0 Bft) 0,00 h 0,00 h 0,0 km/h (0 Bft)
31.07.2011 22:00 22,3 C 13,0 C 0,0 UV-I 0,0 C 54 % 77 % 0 % 1016,9 hPa 0,0 l/m 0,0 km/h (0 Bft) 0,00 h 0,00 h 0,0 km/h (0 Bft)
31.07.2011 23:00 22,0 C 12,1 C 0,0 UV-I 0,0 C 56 % 83 % 0 % 1016,7 hPa 0,0 l/m 0,0 km/h (0 Bft) 0,00 h 0,00 h 0,0 km/h (0 Bft)
Min-Datum _ 25.07.11 25.07.11 25.07.11 25.07.11 25.07.11 25.07.11 25.07.11 25.07.11 - 25.07.11 - - 25.07.11
_ Min-Zeit 06:14 06:58 00:00 00:00 16:28 15:32 00:00 19:44 - 00:00 - - 00:00
Minimum _ 19,6 C 9,4 C 0,0 UV-I 0,0 C 52 % 54 % 0 % 1007,2 hPa - 0,0 km/h (0 Bft) - - 0,0 km/h (0 Bft)
Max-Datum _ 28.07.11 28.07.11 29.07.11 25.07.11 27.07.11 28.07.11 25.07.11 29.07.11 27.07.11 28.07.11 25.07.11 25.07.11 28.07.11
_ Max-Zeit 17:06 17:06 15:58 10:58 07:30 08:26 08:38 12:44 18:10 18:22 08:36 00:00 18:16
Maximum _ 26,4 C 25,3 C 8,2 UV-I 9,1 C 64 % 95 % 100 % 1021,2 hPa 26,1 l/m 14,5 km/h
N-NO (3 Bft)
0,03 h 0,00 h 36,7 km/h
N-NO (5 Bft)
Durchschnitt _ 22,6 C 16,4 C 1,2 UV-I 1,4 C 59 % 82 % 29 % 1016,0 hPa #41,1 l/m 2,2 km/h (1 Bft) #33:10 h #0 min. 3,6 km/h (1 Bft)
© 2012 W. Hausmann